Ana Sayfa
METAR-TAF:

METAR-TAF

Havaalanları :

Erbil Havalimanı

Erbil, Irak

Enlem: 36-14-15N, Boylam: 43-57-47E, yükseklik: 415 m

Güncel hava durumu gözlemi

Rapor saat 05:05 UTC de 35 dakika önce yapıldı.
Rüzgar değişken yönden 1 kt
Sıcaklık 9°C
Nem 93%
Basınç 1022 hPa
Görüş mesafesi: 1500 m
Pus

METAR: ORER 200505Z VRB01KT 1500 BR NSC 09/08 Q1022 BECMG 2000

Saat: 08:40 (05:40 UTC)

Tahmin

Rapor saat 22:00 UTC de 7 saat ve 40 dakika önce yapıldı.
Ayın 20'si saat 00 UTC'den ayın 20'si saat 24 UTC'ye kadar geçerli Tahmin
Rüzgar batı/kuzeybatıdan 5 kt
Görüş mesafesi: 6000 m
4000 ft yükseklikte parçalı bulutlu
Dönüşüyor
ayın 20'si saat 02 UTC'den ayın 20'si saat 04 UTC'ye kadar
Görüş mesafesi: 3000 m
Pus
Dönüşüyor
ayın 20'si saat 07 UTC'den ayın 20'si saat 09 UTC'ye kadar
Görüş mesafesi: 7000 m

TAF: ORER 192200Z 2000/2024 30005KT 6000 SCT040 BECMG 2002/2004 3000 BR BECMG 2007/2009 7000

4.000'den fazla havaalanı için hava durumu gözlemleri ve tahminleri (METAR ve TAF raporları).

Kullanılabilir istasyonlar harita üzerinde sarı ve kırmızı noktalarla gösterilir.

İstasyonun adını görmek için fareyi noktanın üzerinde gezdirin.

Sonrasında hava gözlem ve tahminlerini görmek için tıklayın.

Haritayı değiştirmek için: yaklaştırmak için siyah artı işaretli yeşil düğmeye ve uzaklaştırmak için de eksi işaretli düğmeye hızla tıklayın; bitişik haritalar için yeşil okları kullanın.


METAR-TAF: